Time;durP1;ratioP1;P1;durP2;ratioP2;P2;SDS_P1;SDS_P2;PMS_P1;PMS_P2;Temp;Humidity;BMP_temperature;BMP_pressure;BME280_temperature;BME280_humidity;BME280_pressure;Samples;Min_cycle;Max_cycle;Signal;HPM_P1;HPM_P2
2024/05/05 00:01:36;;;;;;;15.50;13.50;;;13.10;99.90;;;-145.48;100.00;99843.31;5073666;28;20537;-80
2024/05/05 00:04:01;;;;;;;13.83;12.53;;;13.10;99.90;;;-145.48;100.00;99855.81;5073813;28;20186;-81
2024/05/05 00:06:27;;;;;;;14.53;13.03;;;13.10;99.90;;;-145.48;100.00;99837.09;5073760;28;20243;-79
2024/05/05 00:08:55;;;;;;;14.90;13.60;;;13.10;99.90;;;-145.48;100.00;99878.72;5075916;28;20190;-81
2024/05/05 00:11:21;;;;;;;14.40;13.00;;;13.10;99.90;;;-145.48;100.00;99866.22;5084796;28;20196;-80
2024/05/05 00:13:47;;;;;;;16.23;14.73;;;13.10;99.90;;;-145.48;100.00;99878.72;5083760;28;20515;-81
2024/05/05 00:16:13;;;;;;;17.07;15.27;;;13.10;99.90;;;-145.48;100.00;99866.22;5077783;28;20178;-81
2024/05/05 00:18:38;;;;;;;15.60;14.10;;;13.10;99.90;;;-145.48;100.00;99897.44;5077300;28;20458;-81
2024/05/05 00:21:05;;;;;;;16.03;14.30;;;13.10;99.90;;;-145.48;100.00;99866.22;5094125;28;20670;-80
2024/05/05 00:23:31;;;;;;;17.73;15.47;;;13.10;99.90;;;-145.48;100.00;99878.72;5077132;28;20428;-80
2024/05/05 00:25:56;;;;;;;16.50;14.80;;;13.10;99.90;;;-145.48;100.00;99843.31;5077088;28;20603;-80
2024/05/05 00:28:22;;;;;;;16.40;14.73;;;13.00;99.90;;;-145.48;100.00;99895.34;5076716;28;20203;-79
2024/05/05 00:30:48;;;;;;;17.30;15.50;;;13.00;99.90;;;-145.48;100.00;99866.22;5076663;28;20189;-80
2024/05/05 00:33:14;;;;;;;17.43;15.63;;;13.00;99.90;;;-145.48;100.00;99872.47;5077113;28;20714;-79
2024/05/05 00:35:40;;;;;;;19.13;17.13;;;13.00;99.90;;;-145.48;100.00;99862.06;5076726;28;20208;-79
2024/05/05 00:38:05;;;;;;;19.30;17.20;;;13.00;99.90;;;-145.48;100.00;99884.97;5076679;28;20194;-79
2024/05/05 00:40:31;;;;;;;19.07;17.17;;;12.90;99.90;;;-145.48;100.00;99859.97;5076631;28;20185;-80
2024/05/05 00:42:57;;;;;;;18.80;16.87;;;12.80;99.90;;;-145.48;100.00;99884.97;5076697;28;20225;-81
2024/05/05 00:45:23;;;;;;;21.03;17.67;;;12.80;99.90;;;-145.48;100.00;99837.09;5076639;28;20240;-80
2024/05/05 00:47:50;;;;;;;20.10;18.00;;;12.80;99.90;;;-145.48;100.00;99862.06;5059731;28;20189;-80
2024/05/05 00:50:16;;;;;;;17.30;15.60;;;12.80;99.90;;;-145.48;100.00;99868.31;5076482;28;20221;-80
2024/05/05 00:52:49;;;;;;;19.73;17.73;;;12.80;99.90;;;-145.48;100.00;99905.78;5076236;28;20487;-80
2024/05/05 00:55:16;;;;;;;19.70;17.70;;;12.80;99.90;;;-145.48;100.00;99895.34;5076386;28;20205;-80
2024/05/05 00:57:47;;;;;;;20.20;17.73;;;12.70;99.90;;;-145.48;100.00;99887.03;5076265;28;20454;-80
2024/05/05 01:00:14;;;;;;;17.57;15.70;;;12.70;99.90;;;-145.48;100.00;99912.00;5076700;28;20432;-79
2024/05/05 01:02:40;;;;;;;17.37;15.67;;;12.70;99.90;;;-145.48;100.00;99887.03;5076368;28;20515;-80
2024/05/05 01:05:06;;;;;;;18.33;16.43;;;12.70;99.90;;;-145.48;100.00;99912.00;5075745;28;20875;-80
2024/05/05 01:07:34;;;;;;;20.10;16.97;;;12.80;99.90;;;-145.48;100.00;99849.56;5076707;28;20182;-80
2024/05/05 01:10:00;;;;;;;16.43;14.70;;;12.80;99.90;;;-145.48;100.00;99903.69;5076292;28;20436;-80
2024/05/05 01:12:25;;;;;;;17.13;15.20;;;12.80;99.90;;;-145.48;100.00;99903.69;5076190;28;20429;-82
2024/05/05 01:14:51;;;;;;;18.43;16.53;;;12.80;99.90;;;-145.48;100.00;99912.00;5076152;28;20273;-80
2024/05/05 01:17:17;;;;;;;19.07;17.07;;;12.70;99.90;;;-145.48;100.00;99905.78;5076047;28;20178;-79
2024/05/05 01:19:43;;;;;;;17.07;15.50;;;12.70;99.90;;;-145.48;100.00;99899.53;5075681;28;20278;-79
2024/05/05 01:22:09;;;;;;;17.40;15.70;;;12.70;99.90;;;-145.48;100.00;99901.59;5075903;28;20583;-80
2024/05/05 01:24:35;;;;;;;18.60;16.70;;;12.70;99.90;;;-145.48;100.00;99909.94;5076016;28;20439;-80
2024/05/05 01:27:01;;;;;;;17.50;15.70;;;12.80;99.90;;;-145.48;100.00;99912.00;5075600;28;20190;-80
2024/05/05 01:29:26;;;;;;;18.27;16.37;;;12.80;99.90;;;-145.48;100.00;99845.41;5075762;28;20182;-80
2024/05/05 01:31:53;;;;;;;22.80;17.60;;;12.80;99.90;;;-145.48;100.00;99878.72;5075739;28;20185;-80
2024/05/05 01:34:18;;;;;;;18.60;16.70;;;12.80;99.90;;;-145.48;100.00;99903.69;5076312;28;20181;-80
2024/05/05 01:36:44;;;;;;;20.57;18.37;;;12.80;99.90;;;-145.48;100.00;99895.34;5075484;28;20501;-80
2024/05/05 01:39:10;;;;;;;21.23;18.97;;;12.80;99.90;;;-145.48;100.00;99909.94;5074991;28;20190;-80
2024/05/05 01:41:37;;;;;;;21.13;18.33;;;12.80;99.90;;;-145.48;100.00;99882.88;5075424;28;20237;-80
2024/05/05 01:44:03;;;;;;;20.03;17.73;;;12.70;99.90;;;-145.48;100.00;99928.66;5075226;28;20205;-79
2024/05/05 01:46:28;;;;;;;26.87;19.80;;;12.70;99.90;;;-145.48;100.00;99916.19;5075161;28;20866;-80
2024/05/05 01:48:54;;;;;;;22.27;19.87;;;12.70;99.90;;;-145.48;100.00;99872.47;5074979;28;20559;-80
2024/05/05 01:51:20;;;;;;;23.80;19.53;;;12.70;99.90;;;-145.48;100.00;99899.53;5074635;28;20283;-80
2024/05/05 01:53:46;;;;;;;25.50;21.27;;;12.70;99.90;;;-145.48;100.00;99872.47;5075323;28;20238;-80
2024/05/05 01:56:11;;;;;;;25.83;20.93;;;12.70;99.90;;;-145.48;100.00;99909.94;5074911;28;20594;-81
2024/05/05 01:58:37;;;;;;;25.17;21.40;;;12.80;99.90;;;-145.48;100.00;99932.81;5075189;28;20182;-80
2024/05/05 02:01:03;;;;;;;25.13;21.47;;;12.70;99.90;;;-145.48;100.00;99905.78;5074743;28;20215;-80
2024/05/05 02:03:29;;;;;;;29.00;21.90;;;12.70;99.90;;;-145.48;100.00;99924.50;5074865;28;20566;-80
2024/05/05 02:05:55;;;;;;;26.60;22.13;;;12.70;99.90;;;-145.48;100.00;99878.72;5075032;28;20662;-80
2024/05/05 02:08:20;;;;;;;26.10;21.37;;;12.70;99.90;;;-145.48;100.00;99882.88;5058158;28;20510;-80
2024/05/05 02:10:53;;;;;;;26.93;20.80;;;12.70;99.90;;;-145.48;100.00;99893.28;5074722;28;20184;-80
2024/05/05 02:13:18;;;;;;;27.40;20.33;;;12.70;99.90;;;-145.48;100.00;99914.09;5074458;28;20194;-80
2024/05/05 02:15:45;;;;;;;26.73;21.07;;;12.70;99.90;;;-145.48;100.00;99939.06;5074781;28;20532;-80
2024/05/05 02:18:11;;;;;;;31.50;22.57;;;12.70;99.90;;;-145.48;100.00;99924.50;5074495;28;20178;-80
2024/05/05 02:20:37;;;;;;;30.27;21.70;;;12.60;99.90;;;-145.48;100.00;99916.19;5074344;28;20799;-80
2024/05/05 02:23:05;;;;;;;27.23;21.00;;;12.60;99.90;;;-145.48;100.00;99912.00;5074358;28;20190;-80
2024/05/05 02:25:31;;;;;;;31.83;23.77;;;12.60;99.90;;;-145.48;100.00;99907.84;5074470;28;20181;-80
2024/05/05 02:27:56;;;;;;;29.83;22.60;;;12.60;99.90;;;-145.48;100.00;99912.00;5073735;28;20577;-79
2024/05/05 02:30:22;;;;;;;29.73;22.30;;;12.60;99.90;;;-145.48;100.00;99914.09;5074456;28;20174;-80
2024/05/05 02:32:48;;;;;;;32.03;24.40;;;12.60;99.90;;;-145.48;100.00;99855.81;5074535;28;20239;-80
2024/05/05 02:35:14;;;;;;;29.27;23.37;;;12.60;99.90;;;-145.48;100.00;99928.66;5074557;28;20181;-80
2024/05/05 02:37:41;;;;;;;32.13;24.47;;;12.60;99.90;;;-145.48;100.00;99895.34;5074007;28;20281;-80
2024/05/05 02:40:08;;;;;;;27.47;22.43;;;12.60;99.90;;;-145.48;100.00;99928.66;5071556;28;20179;-80
2024/05/05 02:42:34;;;;;;;31.13;24.30;;;12.60;99.90;;;-145.48;100.00;99914.09;5071279;28;20817;-80
2024/05/05 02:45:00;;;;;;;33.57;23.20;;;12.60;99.90;;;-145.48;100.00;99937.00;5054676;28;20429;-79
2024/05/05 02:47:27;;;;;;;35.20;24.30;;;12.60;99.90;;;-145.48;100.00;99922.41;5071084;28;20507;-80
2024/05/05 02:49:53;;;;;;;29.40;21.87;;;12.50;99.90;;;-145.48;100.00;99918.25;5054133;28;20696;-80
2024/05/05 02:52:19;;;;;;;29.00;23.77;;;12.50;99.90;;;-145.48;100.00;99916.19;5054280;28;20570;-79
2024/05/05 02:55:06;;;;;;;30.67;24.30;;;12.40;99.90;;;-145.48;100.00;99884.97;5071888;28;20182;-80
2024/05/05 02:57:32;;;;;;;31.73;22.10;;;12.50;99.90;;;-145.48;100.00;99945.31;5058159;28;20559;-78
2024/05/05 02:59:58;;;;;;;25.80;21.43;;;12.50;99.90;;;-145.48;100.00;99916.19;5054147;28;20433;-79
2024/05/05 03:02:23;;;;;;;30.60;22.53;;;12.50;99.90;;;-145.48;100.00;99916.19;5053846;28;20202;-79
2024/05/05 03:04:49;;;;;;;29.90;22.23;;;12.50;99.90;;;-145.48;100.00;99945.31;5053908;28;20187;-79
2024/05/05 03:07:15;;;;;;;27.47;20.80;;;12.50;99.90;;;-145.48;100.00;99949.47;5053943;28;20206;-79
2024/05/05 03:09:41;;;;;;;31.50;22.70;;;12.50;99.90;;;-145.48;100.00;99849.56;5070243;28;20190;-80
2024/05/05 03:12:07;;;;;;;26.70;20.80;;;12.50;99.90;;;-145.48;100.00;99893.28;5074112;28;20177;-80
2024/05/05 03:14:34;;;;;;;27.87;20.50;;;12.50;99.90;;;-145.48;100.00;99905.78;5057603;28;20190;-79
2024/05/05 03:16:59;;;;;;;30.83;22.67;;;12.50;99.90;;;-145.48;100.00;99912.00;5073691;28;20454;-80
2024/05/05 03:19:25;;;;;;;26.80;21.20;;;12.50;99.90;;;-145.48;100.00;99897.44;5073948;28;20534;-80
2024/05/05 03:21:51;;;;;;;28.57;21.77;;;12.50;99.90;;;-145.48;100.00;99932.81;5074044;28;20213;-79
2024/05/05 03:24:18;;;;;;;33.57;22.77;;;12.40;99.90;;;-145.48;100.00;99897.44;5074018;28;20174;-79
2024/05/05 03:26:46;;;;;;;34.93;23.33;;;12.40;99.90;;;-145.48;100.00;99934.91;5074416;28;20630;-79
2024/05/05 03:29:12;;;;;;;32.57;23.33;;;12.40;99.90;;;-145.48;100.00;99895.34;5074349;28;20432;-80
2024/05/05 03:31:38;;;;;;;30.67;24.43;;;12.30;99.90;;;-145.48;100.00;99918.25;5074005;28;20551;-80
2024/05/05 03:34:04;;;;;;;34.03;22.53;;;12.30;99.90;;;-145.48;100.00;99922.41;5074253;28;20428;-80
2024/05/05 03:36:30;;;;;;;28.10;21.60;;;12.30;99.90;;;-145.48;100.00;99961.97;5090839;28;20481;-81
2024/05/05 03:38:56;;;;;;;29.73;22.30;;;12.30;99.90;;;-145.48;100.00;99953.63;5073747;28;20200;-80
2024/05/05 03:41:22;;;;;;;28.43;20.77;;;12.20;99.90;;;-145.48;100.00;99949.47;5074148;28;20213;-80
2024/05/05 03:43:48;;;;;;;30.20;22.07;;;12.20;99.90;;;-145.48;100.00;99949.47;5073839;28;20428;-80
2024/05/05 03:46:14;;;;;;;29.73;20.17;;;12.20;99.90;;;-145.48;100.00;99974.44;5073880;28;20985;-80
2024/05/05 03:48:40;;;;;;;28.47;20.97;;;12.10;99.90;;;-145.48;100.00;99887.03;5090678;28;20710;-79
2024/05/05 03:51:06;;;;;;;29.23;20.63;;;12.10;99.90;;;-145.48;100.00;99964.06;5077407;28;20471;-80
2024/05/05 03:53:32;;;;;;;27.83;19.43;;;12.10;99.90;;;-145.48;100.00;99957.81;5094906;28;20182;-80
2024/05/05 03:55:58;;;;;;;34.87;20.20;;;12.10;99.90;;;-145.48;100.00;99964.06;5077789;28;20490;-80
2024/05/05 03:58:24;;;;;;;32.90;22.43;;;12.10;99.90;;;-145.48;100.00;99957.81;5077336;28;20428;-79
2024/05/05 04:00:50;;;;;;;31.40;22.80;;;12.20;99.90;;;-145.48;100.00;99937.00;5094509;28;20198;-80
2024/05/05 04:03:16;;;;;;;35.80;24.30;;;12.20;99.90;;;-145.48;100.00;99978.63;5077410;28;20789;-80
2024/05/05 04:05:42;;;;;;;35.83;24.27;;;12.20;99.90;;;-145.48;100.00;99947.41;5077295;28;20264;-80
2024/05/05 04:08:07;;;;;;;33.40;24.17;;;12.20;99.90;;;-145.48;100.00;99939.06;5077184;28;20287;-80
2024/05/05 04:10:33;;;;;;;30.97;22.90;;;12.30;99.90;;;-145.48;100.00;99951.56;5077264;28;20719;-79
2024/05/05 04:13:01;;;;;;;30.23;22.00;;;12.20;99.90;;;-145.48;100.00;99949.47;5076934;28;20228;-80
2024/05/05 04:15:27;;;;;;;30.60;21.00;;;12.20;99.90;;;-145.48;100.00;99930.75;5076945;28;20250;-80
2024/05/05 04:17:52;;;;;;;33.50;22.57;;;12.20;99.90;;;-145.48;100.00;99961.97;5077059;28;20451;-80
2024/05/05 04:20:18;;;;;;;31.97;22.20;;;12.20;99.90;;;-145.48;100.00;99943.22;5077063;28;20739;-80
2024/05/05 04:22:44;;;;;;;33.83;24.43;;;12.20;99.90;;;-145.48;100.00;99899.53;5093760;28;20213;-80
2024/05/05 04:25:10;;;;;;;34.70;22.63;;;12.20;99.90;;;-145.48;100.00;99947.41;5077250;28;21117;-80
2024/05/05 04:27:36;;;;;;;31.03;22.70;;;12.20;99.90;;;-145.48;100.00;99928.66;5076829;28;20611;-80
2024/05/05 04:30:02;;;;;;;28.60;20.63;;;12.20;99.90;;;-145.48;100.00;99978.63;5076814;28;20212;-80
2024/05/05 04:32:28;;;;;;;33.87;22.87;;;12.20;99.90;;;-145.48;100.00;99907.84;5076938;28;20178;-80
2024/05/05 04:34:54;;;;;;;28.43;19.83;;;12.20;99.90;;;-145.48;100.00;99932.81;5076471;28;20435;-80
2024/05/05 04:37:19;;;;;;;28.70;21.07;;;12.10;99.90;;;-145.48;100.00;99959.88;5077023;28;20186;-81
2024/05/05 04:39:45;;;;;;;30.27;22.10;;;12.10;99.90;;;-145.48;100.00;99953.63;5076961;28;20190;-79
2024/05/05 04:42:11;;;;;;;32.23;22.40;;;12.10;99.90;;;-145.48;100.00;99947.41;5076691;28;20236;-79
2024/05/05 04:44:37;;;;;;;32.43;24.37;;;12.20;99.90;;;-145.48;100.00;99961.97;5076713;28;20185;-80
2024/05/05 04:47:03;;;;;;;29.00;22.17;;;12.10;99.90;;;-145.48;100.00;99995.28;5076784;28;20238;-79
2024/05/05 04:49:28;;;;;;;27.70;21.83;;;12.10;99.90;;;-145.48;100.00;99974.44;5076553;28;20213;-80
2024/05/05 04:51:54;;;;;;;26.50;20.37;;;12.00;99.90;;;-145.48;100.00;100005.69;5076434;28;20288;-80
2024/05/05 04:54:21;;;;;;;27.00;20.60;;;11.90;99.90;;;-145.48;100.00;99964.06;5076728;28;20210;-81
2024/05/05 04:56:47;;;;;;;28.57;20.80;;;11.90;99.90;;;-145.48;100.00;99997.34;5093385;28;20182;-80
2024/05/05 04:59:13;;;;;;;26.67;18.20;;;11.80;99.90;;;-145.48;100.00;99991.09;5076345;28;20428;-81
2024/05/05 05:01:40;;;;;;;26.30;20.50;;;11.80;99.90;;;-145.48;100.00;100011.91;5076330;28;20214;-81
2024/05/05 05:04:06;;;;;;;25.70;18.87;;;11.80;99.90;;;-145.48;100.00;99982.78;5076604;28;20431;-80
2024/05/05 05:06:32;;;;;;;27.83;20.57;;;11.70;99.90;;;-145.48;100.00;100007.75;5076345;28;20436;-80
2024/05/05 05:08:58;;;;;;;21.93;18.90;;;11.60;99.90;;;-145.48;100.00;99993.19;5073016;28;20589;-81
2024/05/05 05:11:23;;;;;;;24.97;19.10;;;11.60;99.90;;;-145.48;100.00;99982.78;5056043;28;20179;-81
2024/05/05 05:13:52;;;;;;;24.57;18.50;;;11.60;99.90;;;-145.48;100.00;99978.63;5072899;28;20538;-81
2024/05/05 05:16:18;;;;;;;23.00;18.40;;;11.60;99.90;;;-145.48;100.00;99999.44;5056488;28;20266;-81
2024/05/05 05:18:44;;;;;;;21.77;18.10;;;11.60;99.90;;;-145.48;100.00;100007.75;5072232;28;20461;-80
2024/05/05 05:21:10;;;;;;;23.80;18.40;;;11.60;99.90;;;-145.48;100.00;99991.09;5055652;28;20663;-80
2024/05/05 05:23:36;;;;;;;22.83;18.20;;;11.60;99.90;;;-145.48;100.00;99972.38;5072333;28;20189;-80
2024/05/05 05:26:02;;;;;;;25.90;18.90;;;11.60;99.90;;;-145.48;100.00;100011.91;5056797;28;20425;-80
2024/05/05 05:28:27;;;;;;;23.10;19.33;;;11.60;99.90;;;-145.48;100.00;100024.41;5072467;28;20175;-80
2024/05/05 05:30:53;;;;;;;20.73;17.47;;;11.60;99.90;;;-145.48;100.00;100007.75;5055600;28;20179;-81
2024/05/05 05:33:20;;;;;;;22.80;18.03;;;11.50;99.90;;;-145.48;100.00;99995.28;5056153;28;20175;-81
2024/05/05 05:35:46;;;;;;;21.23;17.77;;;11.60;99.90;;;-145.48;100.00;100016.09;5055754;28;20182;-80
2024/05/05 05:38:12;;;;;;;22.57;17.37;;;11.60;99.90;;;-145.48;100.00;99978.63;5075640;28;20434;-81
2024/05/05 05:40:38;;;;;;;25.70;19.07;;;11.60;99.90;;;-145.48;100.00;100022.31;5092542;28;20208;-80
2024/05/05 05:43:07;;;;;;;22.13;17.17;;;11.60;99.90;;;-145.48;100.00;99976.53;5075879;28;20214;-79
2024/05/05 05:45:33;;;;;;;21.37;17.80;;;11.60;99.90;;;-145.48;100.00;100007.75;5075754;28;20428;-79
2024/05/05 05:47:59;;;;;;;21.20;17.20;;;11.60;99.90;;;-145.48;100.00;100007.75;5075789;28;20497;-79
2024/05/05 05:50:25;;;;;;;19.93;16.37;;;11.60;99.90;;;-145.48;100.00;100011.91;5075464;28;20312;-79
2024/05/05 05:52:50;;;;;;;26.87;18.50;;;11.60;99.90;;;-145.48;100.00;99991.09;5092121;28;20519;-79
2024/05/05 05:55:16;;;;;;;22.63;16.53;;;11.60;99.90;;;-145.48;100.00;100007.75;5075555;28;20177;-80
2024/05/05 05:57:42;;;;;;;21.97;17.60;;;11.60;99.90;;;-145.48;100.00;100011.91;5075000;28;20280;-81
2024/05/05 06:00:08;;;;;;;20.00;16.40;;;11.50;99.90;;;-145.48;100.00;99986.94;5075198;28;20182;-80
2024/05/05 06:02:34;;;;;;;25.10;17.10;;;11.50;99.90;;;-145.48;100.00;100009.84;5092147;28;20217;-80
2024/05/05 06:04:59;;;;;;;27.40;19.00;;;11.50;99.90;;;-145.48;100.00;100011.91;5074916;28;20434;-81
2024/05/05 06:07:25;;;;;;;24.20;16.70;;;11.50;99.90;;;-145.48;100.00;100007.75;5074919;28;20253;-80
2024/05/05 06:09:51;;;;;;;21.80;17.67;;;11.50;99.90;;;-145.48;100.00;99972.38;5074949;28;20259;-80
2024/05/05 06:12:18;;;;;;;21.80;17.10;;;11.50;99.90;;;-145.48;100.00;99989.03;5074324;28;20694;-80
2024/05/05 06:14:44;;;;;;;22.20;17.53;;;10.90;99.90;;;-145.48;100.00;100003.59;5074800;28;20660;-80
2024/05/05 06:17:09;;;;;;;20.73;17.50;;;11.50;99.90;;;-145.48;100.00;100007.75;5075016;28;20428;-80
2024/05/05 06:19:35;;;;;;;19.03;17.03;;;11.50;99.90;;;-145.48;100.00;99991.09;5074818;28;20265;-80
2024/05/05 06:22:01;;;;;;;24.80;18.90;;;11.50;99.90;;;-145.48;100.00;100036.91;5095954;28;20209;-80
2024/05/05 06:24:27;;;;;;;20.60;16.57;;;11.50;99.90;;;-145.48;100.00;100005.69;5074848;28;20177;-80
2024/05/05 06:26:52;;;;;;;20.70;15.70;;;11.50;99.90;;;-145.48;100.00;100024.41;5074436;28;20272;-80
2024/05/05 06:29:18;;;;;;;23.20;17.50;;;11.50;99.90;;;-145.48;100.00;100020.25;5074935;28;20181;-81
2024/05/05 06:31:44;;;;;;;23.90;16.97;;;11.60;99.90;;;-145.48;100.00;99982.78;5074740;28;20277;-80
2024/05/05 06:34:10;;;;;;;21.87;17.80;;;11.60;99.90;;;-145.48;100.00;99970.28;5074582;28;20178;-82
2024/05/05 06:36:36;;;;;;;25.03;18.07;;;11.60;99.90;;;-145.48;100.00;99999.44;5074519;28;20223;-81
2024/05/05 06:39:01;;;;;;;21.13;17.47;;;11.60;99.90;;;-145.48;100.00;100016.09;5074173;28;20643;-80
2024/05/05 06:41:27;;;;;;;23.27;17.30;;;11.60;99.90;;;-145.48;100.00;100020.25;5074390;28;20579;-81
2024/05/05 06:43:54;;;;;;;21.47;17.27;;;11.60;99.90;;;-145.48;100.00;99986.94;5074315;28;20259;-81
2024/05/05 06:46:21;;;;;;;20.40;16.87;;;11.60;99.90;;;-145.48;100.00;100003.59;5074800;28;20170;-81
2024/05/05 06:48:47;;;;;;;20.30;16.67;;;11.60;99.90;;;-145.48;100.00;99982.78;5074143;28;20435;-81
2024/05/05 06:51:12;;;;;;;17.80;15.17;;;11.60;99.90;;;-145.48;100.00;99974.44;5074173;28;20499;-80
2024/05/05 06:53:38;;;;;;;19.13;16.50;;;11.60;99.90;;;-145.48;100.00;100003.59;5091160;28;20610;-82
2024/05/05 06:56:05;;;;;;;18.87;14.63;;;11.60;99.90;;;-145.48;100.00;99997.34;5073974;28;20435;-80
2024/05/05 06:58:31;;;;;;;17.20;14.80;;;11.60;99.90;;;-145.48;100.00;99999.44;5073796;28;20189;-81
2024/05/05 07:00:57;;;;;;;17.80;14.83;;;11.60;99.90;;;-145.48;100.00;100028.56;5074083;28;21014;-80
2024/05/05 07:03:23;;;;;;;18.60;15.63;;;11.60;99.90;;;-145.48;100.00;100011.91;5073845;28;20554;-80
2024/05/05 07:05:48;;;;;;;20.87;16.43;;;11.60;99.90;;;-145.48;100.00;100016.09;5073683;28;20186;-80
2024/05/05 07:08:14;;;;;;;22.80;16.00;;;11.60;99.90;;;-145.48;100.00;100028.56;5073843;28;20681;-79
2024/05/05 07:10:40;;;;;;;20.80;16.90;;;11.60;99.90;;;-145.48;100.00;100001.50;5073796;28;20193;-80
2024/05/05 07:13:06;;;;;;;20.53;16.30;;;11.60;99.90;;;-145.48;100.00;100011.91;5073910;28;20220;-79
2024/05/05 07:15:31;;;;;;;20.40;15.27;;;11.60;99.90;;;-145.48;100.00;100007.75;5073771;28;20561;-80
2024/05/05 07:17:57;;;;;;;22.80;17.20;;;11.60;99.90;;;-145.48;100.00;100016.09;5073922;28;20186;-80
2024/05/05 07:20:23;;;;;;;24.93;17.73;;;11.60;99.90;;;-145.48;100.00;100007.75;5073746;28;20194;-80
2024/05/05 07:22:49;;;;;;;23.50;17.23;;;11.60;99.90;;;-145.48;100.00;99957.81;5074042;28;20287;-81
2024/05/05 07:25:15;;;;;;;20.03;15.70;;;11.70;99.90;;;-145.48;100.00;100011.91;5078149;28;20208;-80
2024/05/05 07:27:41;;;;;;;20.03;15.93;;;11.80;99.90;;;-145.48;100.00;99953.63;5078083;28;20185;-81
2024/05/05 07:30:07;;;;;;;20.70;15.83;;;11.70;99.90;;;-145.48;100.00;99984.88;5095047;28;20182;-81
2024/05/05 07:32:33;;;;;;;24.47;17.33;;;11.80;99.90;;;-145.48;100.00;99982.78;5077429;28;20192;-81
2024/05/05 07:34:59;;;;;;;22.07;17.70;;;11.80;99.90;;;-145.48;100.00;99953.63;5077540;28;20435;-80
2024/05/05 07:37:25;;;;;;;23.77;16.93;;;11.90;99.90;;;-145.48;100.00;99982.78;5077854;28;20185;-81
2024/05/05 07:39:52;;;;;;;23.13;17.30;;;11.90;99.90;;;-145.48;100.00;99966.13;5094252;28;20193;-81
2024/05/05 07:42:17;;;;;;;21.90;16.87;;;11.90;99.90;;;-145.48;100.00;99986.94;5077160;28;20479;-82
2024/05/05 07:44:43;;;;;;;21.37;16.40;;;12.00;99.90;;;-145.48;100.00;99966.13;5078029;28;20939;-82
2024/05/05 07:47:09;;;;;;;22.67;18.40;;;12.00;99.90;;;-145.48;100.00;99953.63;5078108;28;20208;-81
2024/05/05 07:49:35;;;;;;;22.07;17.27;;;11.90;99.90;;;-145.48;100.00;99993.19;5076966;28;20217;-79
2024/05/05 07:52:01;;;;;;;24.10;19.50;;;12.00;99.90;;;-145.48;100.00;99966.13;5077383;28;20489;-79
2024/05/05 07:54:26;;;;;;;24.23;17.30;;;12.00;99.90;;;-145.48;100.00;99991.09;5077159;28;20187;-80
2024/05/05 07:56:52;;;;;;;29.40;20.47;;;12.00;99.90;;;-145.48;100.00;99995.28;5077325;28;20182;-80
2024/05/05 07:59:18;;;;;;;28.57;20.83;;;12.00;99.90;;;-145.48;100.00;99984.88;5076889;28;20170;-79
2024/05/05 08:01:44;;;;;;;25.73;19.80;;;11.90;99.90;;;-145.48;100.00;100007.75;5077340;28;20202;-79
2024/05/05 08:04:10;;;;;;;26.53;20.40;;;11.90;99.90;;;-145.48;100.00;99991.09;5061009;28;20262;-80
2024/05/05 08:06:35;;;;;;;27.03;18.80;;;12.00;99.90;;;-145.48;100.00;99957.81;5077827;28;20180;-80
2024/05/05 08:09:03;;;;;;;24.47;19.47;;;12.00;99.90;;;-145.48;100.00;99974.44;5077883;28;20206;-82
2024/05/05 08:11:29;;;;;;;26.17;20.40;;;12.00;99.90;;;-145.48;100.00;99912.00;5079078;28;20540;-81
2024/05/05 08:13:54;;;;;;;27.40;20.37;;;12.00;99.90;;;-145.48;100.00;99928.66;5077161;28;20428;-80
2024/05/05 08:16:20;;;;;;;29.23;22.33;;;12.10;99.90;;;-145.48;100.00;99972.38;5077269;28;20571;-80
2024/05/05 08:18:46;;;;;;;28.90;22.33;;;12.10;99.90;;;-145.48;100.00;99986.94;5076689;28;20181;-81
2024/05/05 08:21:13;;;;;;;30.87;22.30;;;12.10;99.90;;;-145.48;100.00;99891.19;5076605;28;20198;-81
2024/05/05 08:23:39;;;;;;;28.00;21.30;;;12.10;99.90;;;-145.48;100.00;99966.13;5076615;28;20662;-80
2024/05/05 08:26:05;;;;;;;29.17;21.07;;;12.10;99.90;;;-145.48;100.00;99957.81;5077075;28;20432;-80
2024/05/05 08:28:30;;;;;;;28.50;21.67;;;12.20;99.90;;;-145.48;100.00;99961.97;5076820;28;20174;-80
2024/05/05 08:30:56;;;;;;;30.43;20.20;;;12.20;99.90;;;-145.48;100.00;99961.97;5077159;28;20535;-80
2024/05/05 08:33:22;;;;;;;32.30;23.37;;;12.20;99.90;;;-145.48;100.00;99976.53;5076868;28;20189;-80
2024/05/05 08:35:48;;;;;;;26.80;19.33;;;12.20;99.90;;;-145.48;100.00;99961.97;5076037;28;20209;-80
2024/05/05 08:38:14;;;;;;;27.77;20.90;;;12.30;99.90;;;-145.48;100.00;99949.47;5077192;28;20190;-80
2024/05/05 08:40:40;;;;;;;32.07;23.53;;;12.40;99.90;;;-145.48;100.00;99966.13;5076766;28;20566;-79
2024/05/05 08:43:07;;;;;;;27.40;20.40;;;12.40;99.90;;;-145.48;100.00;99920.34;5076789;28;20181;-80
2024/05/05 08:45:38;;;;;;;28.17;20.03;;;12.40;99.90;;;-145.48;100.00;99907.84;5077506;28;20251;-79
2024/05/05 08:48:10;;;;;;;28.67;21.27;;;12.40;99.90;;;-145.48;100.00;99949.47;5078265;28;20749;-80
2024/05/05 08:50:45;;;;;;;27.90;21.77;;;12.50;99.90;;;-145.48;100.00;99914.09;5077992;28;20471;-80
2024/05/05 08:53:11;;;;;;;28.67;21.67;;;12.60;99.90;;;-145.48;100.00;99953.63;5077569;28;20448;-79
2024/05/05 08:55:37;;;;;;;28.97;21.07;;;12.60;99.90;;;-145.48;100.00;99974.44;5076127;28;20428;-80
2024/05/05 08:58:04;;;;;;;28.07;21.93;;;12.50;99.90;;;-145.48;100.00;99945.31;5059527;28;20220;-81
2024/05/05 09:00:30;;;;;;;27.60;20.47;;;12.50;99.90;;;-145.48;100.00;99976.53;5076284;28;21103;-79
2024/05/05 09:02:59;;;;;;;29.17;21.17;;;12.50;99.90;;;-145.48;100.00;99961.97;5076235;28;20503;-80
2024/05/05 09:05:47;;;;;;;30.97;22.03;;;12.50;99.90;;;-145.48;100.00;99905.78;5076684;28;20432;-80
2024/05/05 09:08:15;;;;;;;28.83;20.97;;;12.50;99.90;;;-145.48;100.00;99941.16;5077097;28;20447;-80
2024/05/05 09:10:41;;;;;;;28.67;21.50;;;12.40;99.90;;;-145.48;100.00;99945.31;5093535;28;20432;-80
2024/05/05 09:13:09;;;;;;;28.90;20.87;;;12.40;99.90;;;-145.48;100.00;99945.31;5076046;28;20528;-80
2024/05/05 09:15:36;;;;;;;34.20;22.70;;;12.40;99.90;;;-145.48;100.00;99970.28;5076245;28;20925;-80
2024/05/05 09:18:01;;;;;;;30.83;22.93;;;12.40;99.90;;;-145.48;100.00;99976.53;5092872;28;20436;-80
2024/05/05 09:20:28;;;;;;;27.13;20.80;;;12.30;99.90;;;-145.48;100.00;99955.72;5083040;28;20921;-78
2024/05/05 09:22:54;;;;;;;27.10;21.03;;;12.30;99.90;;;-145.48;100.00;99949.47;5114158;28;20361;-81
2024/05/05 09:25:21;;;;;;;23.90;18.97;;;12.40;99.90;;;-145.48;100.00;99949.47;5096916;28;20432;-80
2024/05/05 09:27:49;;;;;;;30.73;20.50;;;12.40;99.90;;;-145.48;100.00;99949.47;5082021;28;20443;-80
2024/05/05 09:30:15;;;;;;;25.13;19.10;;;12.40;99.90;;;-145.48;100.00;99953.63;5080374;28;20518;-79
2024/05/05 09:32:45;;;;;;;25.70;18.10;;;12.40;99.90;;;-145.48;100.00;99937.00;5077987;28;20482;-80
2024/05/05 09:35:13;;;;;;;23.17;18.20;;;12.50;99.90;;;-145.48;100.00;99964.06;5094093;28;20440;-79
2024/05/05 09:37:42;;;;;;;24.03;19.20;;;12.50;99.90;;;-145.48;100.00;99951.56;5075884;28;20432;-79
2024/05/05 09:40:10;;;;;;;22.27;18.47;;;12.50;99.90;;;-145.48;100.00;99949.47;5075317;28;20436;-80
2024/05/05 09:42:36;;;;;;;21.90;16.97;;;12.40;99.90;;;-145.48;100.00;99943.22;5076154;28;20900;-78